createdAt,value
2023-02-22T00:01:36.185Z,16.93
2023-02-22T00:04:04.679Z,25.58
2023-02-22T00:06:31.590Z,19.50
2023-02-22T00:08:58.613Z,19.25
2023-02-22T00:11:25.747Z,18.10
2023-02-22T00:13:53.092Z,13.88
2023-02-22T00:16:21.438Z,11.27
2023-02-22T00:18:48.853Z,15.63
2023-02-22T00:21:16.768Z,17.10
2023-02-22T00:23:48.621Z,20.17
2023-02-22T00:26:18.656Z,24.38
2023-02-22T00:28:56.367Z,22.20
2023-02-22T00:31:24.431Z,24.35
2023-02-22T00:33:51.549Z,18.60
2023-02-22T00:36:18.673Z,22.70
2023-02-22T00:38:45.698Z,15.70
2023-02-22T00:41:12.652Z,18.65
2023-02-22T00:43:39.677Z,20.40
2023-02-22T00:46:06.841Z,18.43
2023-02-22T00:48:33.981Z,14.13
2023-02-22T00:51:01.670Z,19.95
2023-02-22T00:53:30.114Z,21.27
2023-02-22T00:55:57.135Z,15.30
2023-02-22T00:58:24.372Z,14.65
2023-02-22T01:00:51.449Z,18.70
2023-02-22T01:03:19.796Z,18.02
2023-02-22T01:05:47.093Z,18.08
2023-02-22T01:08:15.482Z,18.20
2023-02-22T01:10:42.749Z,15.38
2023-02-22T01:13:12.213Z,19.40
2023-02-22T01:15:41.993Z,15.50
2023-02-22T01:18:09.134Z,18.05
2023-02-22T01:20:36.200Z,14.95
2023-02-22T01:23:06.753Z,17.10
2023-02-22T01:25:34.464Z,16.70
2023-02-22T01:28:02.052Z,15.70
2023-02-22T01:30:32.853Z,17.80
2023-02-22T01:33:00.954Z,17.60
2023-02-22T01:35:33.027Z,20.17
2023-02-22T01:38:00.212Z,19.48
2023-02-22T01:40:38.013Z,18.88
2023-02-22T01:43:15.524Z,17.90
2023-02-22T01:45:54.879Z,19.08
2023-02-22T01:48:41.473Z,22.13
2023-02-22T01:51:15.001Z,20.45
2023-02-22T01:53:46.112Z,17.27
2023-02-22T01:56:13.618Z,20.02
2023-02-22T01:58:43.199Z,22.43
2023-02-22T02:01:10.430Z,22.17
2023-02-22T02:03:38.550Z,18.98
2023-02-22T02:06:07.925Z,18.02
2023-02-22T02:08:43.908Z,20.55
2023-02-22T02:11:10.942Z,20.25
2023-02-22T02:13:38.034Z,23.08
2023-02-22T02:16:05.306Z,16.08
2023-02-22T02:18:32.643Z,18.38
2023-02-22T02:21:18.462Z,17.85
2023-02-22T02:24:10.242Z,13.82
2023-02-22T02:27:09.158Z,17.05
2023-02-22T02:30:08.740Z,19.23
2023-02-22T02:32:40.104Z,23.95
2023-02-22T02:35:21.437Z,19.00
2023-02-22T02:38:12.881Z,15.85
2023-02-22T02:41:04.831Z,16.80
2023-02-22T02:43:43.340Z,19.02
2023-02-22T02:46:13.267Z,19.70
2023-02-22T02:48:44.142Z,19.83
2023-02-22T02:51:11.486Z,20.17
2023-02-22T02:53:39.632Z,21.08
2023-02-22T02:56:07.630Z,18.13
2023-02-22T02:58:49.003Z,19.73
2023-02-22T03:01:48.180Z,16.55
2023-02-22T03:04:28.417Z,15.23
2023-02-22T03:06:59.417Z,19.27
2023-02-22T03:09:37.666Z,18.65
2023-02-22T03:12:10.962Z,15.13
2023-02-22T03:14:46.415Z,15.80
2023-02-22T03:17:18.535Z,16.23
2023-02-22T03:19:47.054Z,19.13
2023-02-22T03:22:24.884Z,20.23
2023-02-22T03:25:12.842Z,17.98
2023-02-22T03:27:43.601Z,15.88
2023-02-22T03:30:36.653Z,16.80
2023-02-22T03:33:33.913Z,20.58
2023-02-22T03:36:15.891Z,16.80
2023-02-22T03:38:42.950Z,22.70
2023-02-22T03:41:12.326Z,19.55
2023-02-22T03:43:44.991Z,21.90
2023-02-22T03:46:14.834Z,23.45
2023-02-22T03:48:54.359Z,19.60
2023-02-22T03:51:22.349Z,19.07
2023-02-22T03:53:53.723Z,20.13
2023-02-22T03:56:35.556Z,23.00
2023-02-22T03:59:06.893Z,24.23
2023-02-22T04:01:34.163Z,19.98
2023-02-22T04:04:01.163Z,23.73
2023-02-22T04:06:28.614Z,21.27
2023-02-22T04:08:56.419Z,26.27
2023-02-22T04:11:23.535Z,23.70
2023-02-22T04:13:50.526Z,19.98
2023-02-22T04:16:18.620Z,24.48
2023-02-22T04:18:45.720Z,20.73
2023-02-22T04:21:15.041Z,21.52
2023-02-22T04:23:46.234Z,24.35
2023-02-22T04:26:13.587Z,22.17
2023-02-22T04:28:40.526Z,19.15
2023-02-22T04:31:16.721Z,19.30
2023-02-22T04:33:44.110Z,19.23
2023-02-22T04:36:16.105Z,20.27
2023-02-22T04:38:44.398Z,20.17
2023-02-22T04:41:11.565Z,19.47
2023-02-22T04:43:38.562Z,22.83
2023-02-22T04:46:14.873Z,17.65
2023-02-22T04:48:41.830Z,21.42
2023-02-22T04:51:08.877Z,24.08
2023-02-22T04:53:37.120Z,20.57
2023-02-22T04:56:04.238Z,20.13
2023-02-22T04:58:31.746Z,22.10
2023-02-22T05:00:58.946Z,19.63
2023-02-22T05:03:26.506Z,18.77
2023-02-22T05:05:53.521Z,19.10
2023-02-22T05:08:20.592Z,16.98
2023-02-22T05:10:47.768Z,19.20
2023-02-22T05:13:14.640Z,22.67
2023-02-22T05:15:41.575Z,25.40
2023-02-22T05:18:08.480Z,21.00
2023-02-22T05:20:35.460Z,22.85
2023-02-22T05:23:02.620Z,24.43
2023-02-22T05:25:29.622Z,22.70
2023-02-22T05:28:05.275Z,21.88
2023-02-22T05:30:34.601Z,23.40
2023-02-22T05:33:01.620Z,22.95
2023-02-22T05:35:29.085Z,22.45
2023-02-22T05:37:56.157Z,29.27
2023-02-22T05:40:24.464Z,21.37
2023-02-22T05:42:51.525Z,25.57
2023-02-22T05:45:19.438Z,19.87
2023-02-22T05:47:46.834Z,24.27
2023-02-22T05:50:14.169Z,23.57
2023-02-22T05:52:46.279Z,21.87
2023-02-22T05:55:13.867Z,24.67
2023-02-22T05:57:40.833Z,25.53
2023-02-22T06:00:08.492Z,22.67
2023-02-22T06:02:41.269Z,21.07
2023-02-22T06:05:08.627Z,24.37
2023-02-22T06:07:35.758Z,24.03
2023-02-22T06:10:02.876Z,27.23
2023-02-22T06:12:29.749Z,26.23
2023-02-22T06:14:56.799Z,20.97
2023-02-22T06:17:23.782Z,27.27
2023-02-22T06:19:50.686Z,21.83
2023-02-22T06:22:18.885Z,24.50
2023-02-22T06:24:46.151Z,26.53
2023-02-22T06:27:13.226Z,22.73
2023-02-22T06:29:40.349Z,25.25
2023-02-22T06:32:07.363Z,25.73
2023-02-22T06:34:34.687Z,27.60
2023-02-22T06:37:01.714Z,22.37
2023-02-22T06:39:28.622Z,25.33
2023-02-22T06:41:57.710Z,25.47
2023-02-22T06:44:24.790Z,24.83
2023-02-22T06:46:51.874Z,23.52
2023-02-22T06:49:20.001Z,26.83
2023-02-22T06:51:51.761Z,21.10
2023-02-22T06:54:18.915Z,22.43
2023-02-22T06:56:45.921Z,26.00
2023-02-22T06:59:12.899Z,25.55
2023-02-22T07:01:43.206Z,27.15
2023-02-22T07:04:10.329Z,21.85
2023-02-22T07:06:37.557Z,24.30
2023-02-22T07:09:04.920Z,19.87
2023-02-22T07:11:32.280Z,28.13
2023-02-22T07:13:59.363Z,28.47
2023-02-22T07:16:26.557Z,24.40
2023-02-22T07:18:53.643Z,21.38
2023-02-22T07:21:20.806Z,24.27
2023-02-22T07:23:54.707Z,19.33
2023-02-22T07:26:22.335Z,22.40
2023-02-22T07:28:49.814Z,15.63
2023-02-22T07:31:17.172Z,22.50
2023-02-22T07:33:46.405Z,21.27
2023-02-22T07:36:17.718Z,29.07
2023-02-22T07:38:45.589Z,29.67
2023-02-22T07:41:12.615Z,25.67
2023-02-22T07:43:39.573Z,21.20
2023-02-22T07:46:06.726Z,19.97
2023-02-22T07:48:33.785Z,25.80
2023-02-22T07:51:00.801Z,19.13
2023-02-22T07:53:33.452Z,24.47
2023-02-22T07:56:01.719Z,18.57
2023-02-22T07:58:29.859Z,21.80
2023-02-22T08:00:56.976Z,21.13
2023-02-22T08:03:25.646Z,21.50
2023-02-22T08:05:54.085Z,24.63
2023-02-22T08:08:21.296Z,19.33
2023-02-22T08:10:48.680Z,21.27
2023-02-22T08:13:46.384Z,19.60
2023-02-22T08:16:13.279Z,19.33
2023-02-22T08:18:41.076Z,18.57
2023-02-22T08:21:08.091Z,16.75
2023-02-22T08:23:35.142Z,13.85
2023-02-22T08:26:10.283Z,17.03
2023-02-22T08:28:37.360Z,15.43
2023-02-22T08:31:07.203Z,24.70
2023-02-22T08:33:35.523Z,17.90
2023-02-22T08:36:02.435Z,17.07
2023-02-22T08:38:30.466Z,13.63
2023-02-22T08:40:57.520Z,15.15
2023-02-22T08:43:24.510Z,14.20
2023-02-22T08:45:51.950Z,15.43
2023-02-22T08:48:19.295Z,14.10
2023-02-22T08:50:46.738Z,15.77
2023-02-22T08:53:17.812Z,14.50
2023-02-22T08:55:49.772Z,14.48
2023-02-22T08:58:17.014Z,10.57
2023-02-22T09:00:44.852Z,11.07
2023-02-22T09:03:13.933Z,9.90
2023-02-22T09:05:42.195Z,12.32
2023-02-22T09:08:09.358Z,10.68
2023-02-22T09:10:36.585Z,10.00
2023-02-22T09:13:04.230Z,7.13
2023-02-22T09:15:31.747Z,6.53
2023-02-22T09:17:58.948Z,9.52
2023-02-22T09:20:26.063Z,8.40
2023-02-22T09:22:53.423Z,10.13
2023-02-22T09:25:20.691Z,7.57
2023-02-22T09:27:51.706Z,8.95
2023-02-22T09:30:27.522Z,5.50
2023-02-22T09:32:55.908Z,6.30
2023-02-22T09:35:27.235Z,11.05
2023-02-22T09:37:59.548Z,7.75
2023-02-22T09:40:30.111Z,6.82
2023-02-22T09:43:07.372Z,5.43
2023-02-22T09:45:55.315Z,4.97
2023-02-22T09:48:25.605Z,8.55
2023-02-22T09:50:54.293Z,6.38
2023-02-22T09:53:36.234Z,10.23
2023-02-22T09:56:13.129Z,7.20
2023-02-22T09:58:47.766Z,8.70
2023-02-22T10:01:40.873Z,10.85
2023-02-22T10:04:19.764Z,11.70
2023-02-22T10:07:30.367Z,10.30
2023-02-22T10:09:57.299Z,16.02
2023-02-22T10:12:31.874Z,11.82
2023-02-22T10:15:23.077Z,9.05
2023-02-22T10:17:56.307Z,7.35
2023-02-22T10:20:32.317Z,9.75
2023-02-22T10:23:19.980Z,8.90
2023-02-22T10:25:51.925Z,9.45
2023-02-22T10:28:27.445Z,9.45
2023-02-22T10:30:57.523Z,9.70
2023-02-22T10:33:30.322Z,8.60
2023-02-22T10:35:57.478Z,9.65
2023-02-22T10:38:32.257Z,9.68
2023-02-22T10:41:04.025Z,11.57
2023-02-22T10:43:31.116Z,10.20
2023-02-22T10:46:04.502Z,10.82
2023-02-22T10:48:31.926Z,9.82
2023-02-22T10:51:01.973Z,8.95
2023-02-22T10:53:29.883Z,15.90
2023-02-22T10:56:08.970Z,10.63
2023-02-22T10:58:44.873Z,14.50
2023-02-22T11:01:22.150Z,7.63
2023-02-22T11:04:12.078Z,15.73
2023-02-22T11:06:40.450Z,11.57
2023-02-22T11:09:18.021Z,11.40
2023-02-22T11:11:47.015Z,8.88
2023-02-22T11:14:28.127Z,12.02
2023-02-22T11:16:56.923Z,9.60
2023-02-22T11:19:31.153Z,9.75
2023-02-22T11:22:24.827Z,9.68
2023-02-22T11:24:57.974Z,14.63
2023-02-22T11:27:34.055Z,12.68
2023-02-22T11:30:39.871Z,11.55
2023-02-22T11:33:29.394Z,8.10
2023-02-22T11:36:00.807Z,10.13
2023-02-22T11:38:29.081Z,8.73
2023-02-22T11:41:34.156Z,11.80
2023-02-22T11:44:14.544Z,9.50
2023-02-22T11:46:42.013Z,10.82
2023-02-22T11:49:10.681Z,9.65
2023-02-22T11:51:52.461Z,10.40
2023-02-22T11:54:31.487Z,9.00
2023-02-22T11:57:46.390Z,9.85
2023-02-22T12:00:16.292Z,11.18
2023-02-22T12:02:58.039Z,7.43
2023-02-22T12:06:07.194Z,13.63
2023-02-22T12:08:58.873Z,21.80
2023-02-22T12:11:39.181Z,12.43
2023-02-22T12:14:44.246Z,9.30
2023-02-22T12:17:35.026Z,5.38
2023-02-22T12:20:21.952Z,7.50
2023-02-22T12:23:06.950Z,6.60
2023-02-22T12:25:38.905Z,4.20
2023-02-22T12:28:24.274Z,3.83
2023-02-22T12:31:07.496Z,4.75
2023-02-22T12:33:49.578Z,5.05
2023-02-22T12:36:17.934Z,4.20
2023-02-22T12:38:47.202Z,5.93
2023-02-22T12:41:28.978Z,6.20
2023-02-22T12:44:17.322Z,7.22
2023-02-22T12:46:46.814Z,3.25
2023-02-22T12:49:28.806Z,3.63
2023-02-22T12:52:09.706Z,5.70
2023-02-22T12:54:57.924Z,5.47
2023-02-22T12:57:42.504Z,6.00
2023-02-22T13:00:23.079Z,4.72
2023-02-22T13:03:19.699Z,3.38
2023-02-22T13:05:49.488Z,4.88
2023-02-22T13:08:19.651Z,3.65
2023-02-22T13:11:17.971Z,5.13
2023-02-22T13:14:13.237Z,3.85
2023-02-22T13:16:43.179Z,9.15
2023-02-22T13:19:38.467Z,4.47
2023-02-22T13:22:29.832Z,5.43
2023-02-22T13:25:09.703Z,4.13
2023-02-22T13:28:00.440Z,5.18
2023-02-22T13:30:45.637Z,6.15
2023-02-22T13:33:18.727Z,7.22
2023-02-22T13:36:09.402Z,7.70
2023-02-22T13:39:20.691Z,6.03
2023-02-22T13:42:14.142Z,4.93
2023-02-22T13:44:57.153Z,4.43
2023-02-22T13:47:34.568Z,6.32
2023-02-22T13:50:58.311Z,6.28
2023-02-22T13:53:27.149Z,6.20
2023-02-22T13:55:57.056Z,4.35
2023-02-22T13:58:24.178Z,6.63
2023-02-22T14:00:58.472Z,7.90
2023-02-22T14:03:36.043Z,3.67
2023-02-22T14:06:04.996Z,8.43
2023-02-22T14:08:31.897Z,7.10
2023-02-22T14:11:00.641Z,3.55
2023-02-22T14:13:29.278Z,3.53
2023-02-22T14:16:05.053Z,3.80
2023-02-22T14:18:43.819Z,7.03
2023-02-22T14:21:28.588Z,4.65
2023-02-22T14:23:56.894Z,3.25
2023-02-22T14:26:30.786Z,2.55
2023-02-22T14:29:02.715Z,3.90
2023-02-22T14:31:36.371Z,8.15
2023-02-22T14:34:17.362Z,4.13
2023-02-22T14:36:58.137Z,6.07
2023-02-22T14:39:34.082Z,4.22
2023-02-22T14:42:08.409Z,3.83
2023-02-22T14:44:55.554Z,7.40
2023-02-22T14:47:54.412Z,2.67
2023-02-22T14:50:25.100Z,5.13
2023-02-22T14:53:28.931Z,5.68
2023-02-22T14:56:11.799Z,9.45
2023-02-22T14:58:49.830Z,4.70
2023-02-22T15:01:47.348Z,4.85
2023-02-22T15:04:27.945Z,7.93
2023-02-22T15:06:55.802Z,3.10
2023-02-22T15:09:34.465Z,5.00
2023-02-22T15:12:05.202Z,6.07
2023-02-22T15:14:37.852Z,4.60
2023-02-22T15:17:13.731Z,4.60
2023-02-22T15:19:40.957Z,5.55
2023-02-22T15:22:18.290Z,3.17
2023-02-22T15:25:01.873Z,4.90
2023-02-22T15:27:28.865Z,7.10
2023-02-22T15:30:04.448Z,5.13
2023-02-22T15:32:53.287Z,2.95
2023-02-22T15:35:31.769Z,3.78
2023-02-22T15:38:00.144Z,3.90
2023-02-22T15:40:33.204Z,3.75
2023-02-22T15:43:05.307Z,4.22
2023-02-22T15:45:32.619Z,6.15
2023-02-22T15:47:59.818Z,3.47
2023-02-22T15:50:29.677Z,7.28
2023-02-22T15:53:04.149Z,4.80
2023-02-22T15:55:39.097Z,8.82
2023-02-22T15:58:11.305Z,6.35
2023-02-22T16:00:40.196Z,4.18
2023-02-22T16:03:23.050Z,5.82
2023-02-22T16:05:56.688Z,3.33
2023-02-22T16:08:31.487Z,4.78
2023-02-22T16:11:04.727Z,3.40
2023-02-22T16:13:41.602Z,4.55
2023-02-22T16:16:17.618Z,3.63
2023-02-22T16:18:44.825Z,1.58
2023-02-22T16:21:22.016Z,2.15
2023-02-22T16:23:53.349Z,5.63
2023-02-22T16:26:39.298Z,3.72
2023-02-22T16:29:08.202Z,5.03
2023-02-22T16:31:37.833Z,10.23
2023-02-22T16:34:07.944Z,2.55
2023-02-22T16:36:43.350Z,2.53
2023-02-22T16:39:20.210Z,3.85
2023-02-22T16:41:47.141Z,4.60
2023-02-22T16:44:14.062Z,2.55
2023-02-22T16:46:41.980Z,2.25
2023-02-22T16:49:12.335Z,2.65
2023-02-22T16:51:59.609Z,4.22
2023-02-22T16:54:45.512Z,3.85
2023-02-22T16:57:20.160Z,2.75
2023-02-22T16:59:52.108Z,3.40
2023-02-22T17:02:19.971Z,3.45
2023-02-22T17:04:49.738Z,5.05
2023-02-22T17:07:23.693Z,1.98
2023-02-22T17:09:53.410Z,1.27
2023-02-22T17:12:20.561Z,2.05
2023-02-22T17:14:47.644Z,1.73
2023-02-22T17:17:14.669Z,2.47
2023-02-22T17:19:41.658Z,2.00
2023-02-22T17:22:21.233Z,1.88
2023-02-22T17:24:48.395Z,3.92
2023-02-22T17:27:17.990Z,1.42
2023-02-22T17:29:45.173Z,1.98
2023-02-22T17:32:12.643Z,1.65
2023-02-22T17:34:40.713Z,4.28
2023-02-22T17:37:07.672Z,4.63
2023-02-22T17:39:34.645Z,5.82
2023-02-22T17:42:03.994Z,1.60
2023-02-22T17:44:31.805Z,4.35
2023-02-22T17:47:01.507Z,4.88
2023-02-22T17:49:30.068Z,4.65
2023-02-22T17:51:57.038Z,3.42
2023-02-22T17:54:26.993Z,1.60
2023-02-22T17:56:53.992Z,6.47
2023-02-22T17:59:20.902Z,6.35
2023-02-22T18:01:48.917Z,4.13
2023-02-22T18:04:15.894Z,2.28
2023-02-22T18:06:42.832Z,2.90
2023-02-22T18:09:14.631Z,2.08
2023-02-22T18:11:42.389Z,1.83
2023-02-22T18:14:12.146Z,2.65
2023-02-22T18:16:39.477Z,1.92
2023-02-22T18:19:07.542Z,1.30
2023-02-22T18:21:34.486Z,8.65
2023-02-22T18:24:01.436Z,6.45
2023-02-22T18:26:29.837Z,4.80
2023-02-22T18:28:57.108Z,2.78
2023-02-22T18:31:24.146Z,0.93
2023-02-22T18:33:52.020Z,3.35
2023-02-22T18:36:22.787Z,2.05
2023-02-22T18:38:52.702Z,0.77
2023-02-22T18:41:20.401Z,5.40
2023-02-22T18:43:47.505Z,3.35
2023-02-22T18:46:19.606Z,3.20
2023-02-22T18:48:47.342Z,2.67
2023-02-22T18:51:17.279Z,2.08
2023-02-22T18:53:47.043Z,2.58
2023-02-22T18:56:17.011Z,3.28
2023-02-22T18:58:44.245Z,4.10
2023-02-22T19:01:17.293Z,1.63
2023-02-22T19:03:47.050Z,2.42
2023-02-22T19:06:14.457Z,2.58
2023-02-22T19:08:42.524Z,3.05
2023-02-22T19:11:21.723Z,3.17
2023-02-22T19:13:53.972Z,1.80
2023-02-22T19:16:22.577Z,4.28
2023-02-22T19:18:50.803Z,6.18
2023-02-22T19:21:18.332Z,2.60
2023-02-22T19:23:45.943Z,3.25
2023-02-22T19:26:14.158Z,2.95
2023-02-22T19:28:42.117Z,3.40
2023-02-22T19:31:14.006Z,4.80
2023-02-22T19:33:41.237Z,5.53
2023-02-22T19:36:09.349Z,9.80
2023-02-22T19:38:39.847Z,8.77
2023-02-22T19:41:10.171Z,5.57
2023-02-22T19:43:38.861Z,2.53
2023-02-22T19:46:06.672Z,1.92
2023-02-22T19:48:34.127Z,2.03
2023-02-22T19:51:12.387Z,3.75
2023-02-22T19:53:43.330Z,0.88
2023-02-22T19:56:16.112Z,1.15
2023-02-22T19:58:44.914Z,3.67
2023-02-22T20:01:18.010Z,1.13
2023-02-22T20:03:46.215Z,1.05
2023-02-22T20:06:16.551Z,1.00
2023-02-22T20:08:44.560Z,1.45
2023-02-22T20:11:11.738Z,6.13
2023-02-22T20:13:39.270Z,4.55
2023-02-22T20:16:06.848Z,18.48
2023-02-22T20:18:33.973Z,4.63
2023-02-22T20:21:02.941Z,5.90
2023-02-22T20:23:30.214Z,3.05
2023-02-22T20:25:57.499Z,1.67
2023-02-22T20:28:24.481Z,2.05
2023-02-22T20:30:51.737Z,4.97
2023-02-22T20:33:21.428Z,2.47
2023-02-22T20:35:48.522Z,1.20
2023-02-22T20:38:19.258Z,3.85
2023-02-22T20:40:47.592Z,4.75
2023-02-22T20:43:14.584Z,4.43
2023-02-22T20:45:42.114Z,10.95
2023-02-22T20:48:09.158Z,8.07
2023-02-22T20:50:36.100Z,9.10
2023-02-22T20:53:03.037Z,4.10
2023-02-22T20:55:33.561Z,1.92
2023-02-22T20:58:00.463Z,4.57
2023-02-22T21:00:27.556Z,5.78
2023-02-22T21:02:55.286Z,1.02
2023-02-22T21:05:23.324Z,7.70
2023-02-22T21:07:50.329Z,2.63
2023-02-22T21:10:20.991Z,7.95
2023-02-22T21:12:47.960Z,1.85
2023-02-22T21:15:15.067Z,2.60
2023-02-22T21:17:47.698Z,1.40
2023-02-22T21:20:14.905Z,1.10
2023-02-22T21:22:43.752Z,4.90
2023-02-22T21:25:10.688Z,4.45
2023-02-22T21:27:37.632Z,1.83
2023-02-22T21:30:05.201Z,5.38
2023-02-22T21:32:32.869Z,1.77
2023-02-22T21:34:59.890Z,5.43
2023-02-22T21:37:26.909Z,5.80
2023-02-22T21:39:53.864Z,1.52
2023-02-22T21:42:21.162Z,1.85
2023-02-22T21:44:49.485Z,10.00
2023-02-22T21:47:16.626Z,2.25
2023-02-22T21:49:43.874Z,1.85
2023-02-22T21:52:10.805Z,1.70
2023-02-22T21:54:37.738Z,3.35
2023-02-22T21:57:06.365Z,3.03
2023-02-22T21:59:33.527Z,2.28
2023-02-22T22:02:00.428Z,4.85
2023-02-22T22:04:29.169Z,2.75
2023-02-22T22:06:57.777Z,3.60
2023-02-22T22:09:28.754Z,3.65
2023-02-22T22:12:01.272Z,2.88
2023-02-22T22:14:35.329Z,2.67
2023-02-22T22:17:05.411Z,5.20
2023-02-22T22:19:39.457Z,6.22
2023-02-22T22:22:07.887Z,6.20
2023-02-22T22:24:35.348Z,2.03
2023-02-22T22:27:12.367Z,3.30
2023-02-22T22:29:39.483Z,3.28
2023-02-22T22:32:06.747Z,4.60
2023-02-22T22:34:34.887Z,2.78
2023-02-22T22:37:01.830Z,2.13
2023-02-22T22:39:28.774Z,2.40
2023-02-22T22:41:55.945Z,3.10
2023-02-22T22:44:23.109Z,5.15
2023-02-22T22:46:53.416Z,4.57
2023-02-22T22:49:20.619Z,2.25
2023-02-22T22:51:47.754Z,1.38
2023-02-22T22:54:14.778Z,1.17
2023-02-22T22:56:41.819Z,5.20
2023-02-22T22:59:09.753Z,1.40
2023-02-22T23:01:40.574Z,4.03
2023-02-22T23:04:10.010Z,5.05
2023-02-22T23:06:40.039Z,1.50
2023-02-22T23:09:18.557Z,2.25
2023-02-22T23:11:50.983Z,1.00
2023-02-22T23:14:20.223Z,2.85
2023-02-22T23:16:48.204Z,2.38
2023-02-22T23:19:19.140Z,1.33
2023-02-22T23:21:47.078Z,2.70
2023-02-22T23:24:17.362Z,3.35
2023-02-22T23:26:50.761Z,1.92
2023-02-22T23:29:18.641Z,1.85
2023-02-22T23:31:48.294Z,3.92
2023-02-22T23:34:21.070Z,6.33
2023-02-22T23:36:48.685Z,6.73
2023-02-22T23:39:18.041Z,6.20
2023-02-22T23:41:44.974Z,4.03
2023-02-22T23:44:17.231Z,5.67
2023-02-22T23:46:47.971Z,7.18
2023-02-22T23:49:20.067Z,3.10
2023-02-22T23:51:47.064Z,6.80
2023-02-22T23:54:16.625Z,5.03
2023-02-22T23:56:47.194Z,7.27
2023-02-22T23:59:14.425Z,3.70
